Time;durP1;ratioP1;P1;durP2;ratioP2;P2;SDS_P1;SDS_P2;PMS_P1;PMS_P2;Temp;Humidity;BMP_temperature;BMP_pressure;BME280_temperature;BME280_humidity;BME280_pressure;Samples;Min_cycle;Max_cycle;Signal;HPM_P1;HPM_P2
2023/01/03 00:00:13;;;;;;;3.83;2.30;;;;;;;5.13;100.00;102484.84;4938083;29;20027;-92
2023/01/03 00:02:53;;;;;;;6.20;2.70;;;;;;;5.08;100.00;102486.41;4937435;29;20032;-92
2023/01/03 00:05:25;;;;;;;3.33;2.35;;;;;;;5.07;100.00;102495.81;4938253;29;20063;-92
2023/01/03 00:07:53;;;;;;;4.40;2.75;;;;;;;5.04;100.00;102484.53;4938186;29;20413;-92
2023/01/03 00:10:19;;;;;;;4.10;2.80;;;;;;;4.98;100.00;102482.63;4932024;29;20043;-92
2023/01/03 00:12:47;;;;;;;2.83;2.20;;;;;;;4.97;100.00;102482.59;4938133;29;20465;-92
2023/01/03 00:15:35;;;;;;;3.30;2.30;;;;;;;4.97;100.00;102474.88;4929529;23;20135;-93
2023/01/03 00:18:07;;;;;;;3.20;2.40;;;;;;;4.92;100.00;102469.56;4918655;29;20028;-92
2023/01/03 00:20:33;;;;;;;4.03;2.70;;;;;;;4.87;100.00;102474.56;4916971;29;20052;-92
2023/01/03 00:23:00;;;;;;;4.75;2.58;;;;;;;4.84;100.00;102482.16;4917849;29;20051;-93
2023/01/03 00:25:26;;;;;;;3.90;2.55;;;;;;;4.80;100.00;102477.72;4920029;23;20067;-92
2023/01/03 00:27:54;;;;;;;4.07;2.60;;;;;;;4.75;100.00;102471.56;4937228;29;20020;-92
2023/01/03 00:30:34;;;;;;;3.92;2.65;;;;;;;4.72;100.00;102479.16;4937393;29;20028;-92
2023/01/03 00:32:59;;;;;;;3.20;2.20;;;;;;;4.70;100.00;102485.94;4937982;29;20024;-93
2023/01/03 00:35:31;;;;;;;3.55;2.53;;;;;;;4.66;100.00;102484.94;4937222;29;20030;-92
2023/01/03 00:38:18;;;;;;;3.90;2.50;;;;;;;4.61;100.00;102482.22;4937600;29;20031;-92
2023/01/03 00:41:31;;;;;;;2.60;2.33;;;;;;;4.58;100.00;102483.81;4933306;23;20052;-92
2023/01/03 00:44:18;;;;;;;3.85;2.78;;;;;;;4.56;100.00;102488.88;4879137;29;20471;-92
2023/01/03 00:46:53;;;;;;;3.50;2.45;;;;;;;4.54;100.00;102493.13;4880418;29;20025;-92
2023/01/03 00:49:30;;;;;;;3.00;2.40;;;;;;;4.52;100.00;102497.31;4897130;29;20047;-93
2023/01/03 00:52:13;;;;;;;3.40;2.55;;;;;;;4.47;100.00;102491.13;4897944;29;20041;-93
2023/01/03 00:54:44;;;;;;;3.38;2.47;;;;;;;4.46;100.00;102497.97;4897843;29;20040;-92
2023/01/03 00:57:15;;;;;;;3.45;2.58;;;;;;;4.43;100.00;102494.41;4896631;29;20032;-92
2023/01/03 00:59:52;;;;;;;4.70;2.80;;;;;;;4.42;100.00;102496.09;4897515;29;20028;-93
2023/01/03 01:02:53;;;;;;;4.32;2.70;;;;;;;4.40;100.00;102502.88;4927725;29;20047;-92
2023/01/03 01:05:43;;;;;;;3.85;2.80;;;;;;;4.35;100.00;102495.81;4936692;29;20019;-92
2023/01/03 01:08:19;;;;;;;4.70;3.10;;;;;;;4.34;100.00;102502.66;4859771;29;20041;-93
2023/01/03 01:11:03;;;;;;;3.80;2.70;;;;;;;4.34;100.00;102510.38;4859943;29;20061;-92
2023/01/03 01:13:50;;;;;;;4.25;2.80;;;;;;;4.29;100.00;102515.34;4860301;29;20159;-93
2023/01/03 01:19:54;;;;;;;4.45;2.83;;;;;;;4.21;100.00;102521.00;4937005;29;20527;-93
2023/01/03 01:22:23;;;;;;;3.58;2.70;;;;;;;4.14;100.00;102525.91;4932531;29;20388;-93
2023/01/03 01:24:51;;;;;;;4.00;2.60;;;;;;;4.07;100.00;102523.91;4931897;29;20075;-92
2023/01/03 01:27:25;;;;;;;3.72;2.40;;;;;;;4.06;100.00;102532.44;4936864;29;20030;-92
2023/01/03 01:29:51;;;;;;;3.00;2.28;;;;;;;4.01;100.00;102532.25;4937131;29;20028;-92
2023/01/03 01:32:29;;;;;;;4.32;2.88;;;;;;;3.98;100.00;102534.72;4936405;29;20481;-92
2023/01/03 01:35:00;;;;;;;3.95;2.83;;;;;;;3.93;100.00;102535.38;4936873;29;20068;-91
2023/01/03 01:37:26;;;;;;;3.85;2.50;;;;;;;3.85;100.00;102538.47;4936798;29;20030;-92
2023/01/03 01:40:41;;;;;;;2.80;2.50;;;;;;;3.84;100.00;102541.88;4935861;29;20493;-92
2023/01/03 01:47:32;;;;;;;3.08;2.30;;;;;;;3.71;100.00;102547.34;4936971;29;20055;-93
2023/01/03 01:50:38;;;;;;;3.38;2.55;;;;;;;3.64;100.00;102550.47;4936806;29;20059;-92
2023/01/03 01:56:52;;;;;;;4.20;2.80;;;;;;;3.54;100.00;102555.22;4924682;23;20087;-93
2023/01/03 01:59:27;;;;;;;3.80;2.78;;;;;;;3.52;100.00;102564.56;4838932;29;20041;-90
2023/01/03 02:02:09;;;;;;;4.88;2.90;;;;;;;3.49;100.00;102566.97;4825074;29;20452;-92
2023/01/03 02:04:38;;;;;;;5.22;3.00;;;;;;;3.46;100.00;102563.41;4840912;29;20080;-92
2023/01/03 02:07:10;;;;;;;5.68;3.20;;;;;;;3.43;100.00;102566.75;4840656;29;20170;-92
2023/01/03 02:09:56;;;;;;;3.88;2.75;;;;;;;3.40;100.00;102566.59;4839946;29;20800;-92
2023/01/03 02:16:05;;;;;;;4.68;3.08;;;;;;;3.27;100.00;102549.81;4842418;29;20076;-92
2023/01/03 02:19:32;;;;;;;4.25;2.75;;;;;;;3.25;100.00;102561.69;4845225;29;20034;-92
2023/01/03 02:22:16;;;;;;;3.70;2.60;;;;;;;3.18;100.00;102559.69;4826357;29;20552;-92
2023/01/03 02:25:19;;;;;;;4.78;2.78;;;;;;;3.15;100.00;102567.25;4826089;29;20396;-92
2023/01/03 02:28:21;;;;;;;3.45;2.60;;;;;;;3.11;100.00;102568.81;4825732;29;20122;-92
2023/01/03 02:34:49;;;;;;;3.83;2.80;;;;;;;3.02;100.00;102568.41;4921100;29;20096;-92
2023/01/03 02:37:33;;;;;;;3.90;2.60;;;;;;;3.02;100.00;102570.97;4919541;29;20034;-92
2023/01/03 02:40:35;;;;;;;4.43;2.70;;;;;;;3.02;100.00;102566.72;4920753;29;20031;-92
2023/01/03 02:46:59;;;;;;;4.05;3.03;;;;;;;3.01;100.00;102558.97;4891897;29;20037;-92
2023/01/03 02:50:10;;;;;;;6.38;3.40;;;;;;;2.99;100.00;102565.72;4923313;29;20076;-92
2023/01/03 02:55:49;;;;;;;4.30;3.00;;;;;;;2.94;100.00;102550.97;4881966;29;20085;-92
2023/01/03 02:58:30;;;;;;;5.68;3.20;;;;;;;2.93;100.00;102558.63;4913794;29;20068;-92
2023/01/03 03:01:17;;;;;;;4.55;3.00;;;;;;;2.93;100.00;102556.06;4920938;29;20450;-92
2023/01/03 03:03:52;;;;;;;5.78;3.30;;;;;;;2.93;100.00;102562.06;4920445;29;20024;-92
2023/01/03 03:06:57;;;;;;;4.32;3.20;;;;;;;2.88;100.00;102552.41;4919645;29;20518;-92
2023/01/03 03:09:23;;;;;;;4.30;3.00;;;;;;;2.84;100.00;102553.97;4919911;29;20028;-91
2023/01/03 03:14:57;;;;;;;3.80;2.83;;;;;;;2.78;100.00;102552.00;4937986;29;20091;-93
2023/01/03 03:17:31;;;;;;;4.80;2.90;;;;;;;2.82;100.00;102565.81;4938643;29;20388;-92
2023/01/03 03:26:21;;;;;;;5.68;3.13;;;;;;;2.72;100.00;102567.13;4919905;29;20039;-92
2023/01/03 03:29:20;;;;;;;4.78;3.00;;;;;;;2.68;100.00;102561.78;4919434;29;20032;-92
2023/01/03 03:31:49;;;;;;;4.63;2.80;;;;;;;2.68;100.00;102556.66;4920041;29;20083;-92
2023/01/03 03:34:28;;;;;;;4.72;2.80;;;;;;;2.67;100.00;102562.59;4919779;29;20024;-92
2023/01/03 03:46:26;;;;;;;4.63;2.95;;;;;;;2.63;100.00;102561.59;4919569;29;20103;-92
2023/01/03 03:52:25;;;;;;;5.10;3.08;;;;;;;2.62;100.00;102555.56;4842255;29;20057;-92
2023/01/03 03:55:54;;;;;;;4.93;3.15;;;;;;;2.59;100.00;102555.41;4842858;29;20042;-91
2023/01/03 03:59:19;;;;;;;4.93;3.10;;;;;;;2.57;100.00;102562.19;4946522;23;20052;-91
2023/01/03 04:01:52;;;;;;;;;;;;;;;2.53;100.00;102555.16;4824349;29;20045;-91
2023/01/03 04:04:41;;;;;;;4.50;2.90;;;;;;;2.50;100.00;102560.13;4824116;29;19913;-91
2023/01/03 04:07:18;;;;;;;3.90;2.80;;;;;;;2.44;100.00;102560.72;4823960;29;20535;-91
2023/01/03 04:10:05;;;;;;;6.05;3.20;;;;;;;2.45;100.00;102569.31;4824424;29;20119;-92
2023/01/03 04:12:52;;;;;;;5.15;2.85;;;;;;;2.44;100.00;102565.84;4847736;29;20524;-91
2023/01/03 04:19:16;;;;;;;;;;;;;;;;;;;;;
2023/01/03 04:21:44;;;;;;;3.40;2.63;;;;;;;2.37;100.00;102552.69;4914165;29;20052;-91
2023/01/03 04:26:52;;;;;;;5.10;2.70;;;;;;;2.36;100.00;102548.41;4939320;23;20052;-92
2023/01/03 04:29:23;;;;;;;4.32;2.80;;;;;;;2.40;100.00;102557.97;4918582;29;20024;-91
2023/01/03 04:31:54;;;;;;;3.55;2.60;;;;;;;2.35;100.00;102550.06;4928474;23;20110;-92
2023/01/03 04:34:26;;;;;;;3.55;2.42;;;;;;;2.32;100.00;102555.03;4918350;29;20043;-92
2023/01/03 04:36:51;;;;;;;2.85;2.35;;;;;;;2.32;100.00;102555.03;4951964;23;20131;-91
2023/01/03 04:39:19;;;;;;;4.93;2.50;;;;;;;2.33;100.00;102550.81;4917879;29;20492;-92
2023/01/03 04:44:00;;;;;;;4.50;2.75;;;;;;;2.31;100.00;102556.72;4918029;29;20028;-92
2023/01/03 04:44:51;;;;;;;4.47;2.90;;;;;;;2.33;100.00;102556.78;4917975;29;20448;-92
2023/01/03 04:47:28;;;;;;;4.15;2.50;;;;;;;2.33;100.00;102558.50;4917623;29;20051;-91
2023/01/03 04:50:18;;;;;;;3.85;2.70;;;;;;;2.37;100.00;102563.81;4918146;29;20036;-92
2023/01/03 04:52:52;;;;;;;4.05;2.60;;;;;;;2.35;100.00;102556.88;4918382;29;20111;-91
2023/01/03 04:55:17;;;;;;;3.80;2.70;;;;;;;2.36;100.00;102554.38;4924621;23;20052;-91
2023/01/03 04:57:50;;;;;;;2.83;2.30;;;;;;;2.34;100.00;102561.13;4918352;29;20031;-91
2023/01/03 05:00:26;;;;;;;3.45;2.50;;;;;;;2.32;100.00;102555.03;4918235;29;20052;-91
2023/01/03 05:02:56;;;;;;;4.65;2.55;;;;;;;2.30;100.00;102565.22;4918106;29;20110;-92
2023/01/03 05:05:38;;;;;;;3.03;2.40;;;;;;;2.26;100.00;102562.44;4918114;29;20036;-91
2023/01/03 05:08:14;;;;;;;3.28;2.40;;;;;;;2.22;100.00;102564.00;4918102;29;20047;-91
2023/01/03 05:10:54;;;;;;;3.63;2.70;;;;;;;2.21;100.00;102561.34;4918151;29;20028;-91
2023/01/03 05:13:22;;;;;;;4.10;2.75;;;;;;;2.19;100.00;102560.41;4917692;29;20284;-91
2023/01/03 05:15:53;;;;;;;3.97;2.50;;;;;;;2.16;100.00;102544.09;4918282;29;20068;-91
2023/01/03 05:18:22;;;;;;;6.43;3.60;;;;;;;2.10;100.00;102538.66;4917817;29;20068;-91
2023/01/03 05:26:51;;;;;;;4.57;3.00;;;;;;;2.14;100.00;102543.13;4918426;29;20047;-91
2023/01/03 05:29:23;;;;;;;5.35;3.10;;;;;;;2.14;100.00;102543.13;4917775;29;20115;-91
2023/01/03 05:31:52;;;;;;;5.00;3.13;;;;;;;2.11;100.00;102540.44;4917473;29;20028;-91
2023/01/03 05:34:23;;;;;;;4.13;2.88;;;;;;;2.13;100.00;102555.88;4917811;29;20032;-91
2023/01/03 05:36:49;;;;;;;4.97;2.80;;;;;;;2.10;100.00;102542.94;4917757;29;20032;-92
2023/01/03 05:39:26;;;;;;;6.40;3.53;;;;;;;2.12;100.00;102554.13;4917311;29;20107;-91
2023/01/03 05:42:23;;;;;;;5.97;3.42;;;;;;;2.13;100.00;102541.38;4916670;29;20054;-91
2023/01/03 05:44:49;;;;;;;5.70;3.10;;;;;;;2.18;100.00;102541.59;4917349;29;20024;-91
2023/01/03 05:47:34;;;;;;;4.65;3.00;;;;;;;2.20;100.00;102537.44;4917407;29;20052;-91
2023/01/03 06:00:03;;;;;;;6.05;3.50;;;;;;;2.24;100.00;102535.88;4881712;29;20040;-91
2023/01/03 06:02:28;;;;;;;4.90;2.95;;;;;;;2.23;100.00;102534.13;4946745;23;20040;-91
2023/01/03 06:05:06;;;;;;;6.00;3.58;;;;;;;2.18;100.00;102533.91;4902601;29;20033;-91
2023/01/03 06:07:32;;;;;;;12.77;5.25;;;;;;;2.09;100.00;102528.34;4902247;29;20032;-91
2023/01/03 06:09:58;;;;;;;10.10;4.80;;;;;;;2.06;100.00;102526.53;4918690;29;20024;-92
2023/01/03 06:12:29;;;;;;;10.27;4.95;;;;;;;2.04;100.00;102527.25;4921053;29;20556;-92
2023/01/03 06:14:55;;;;;;;8.18;4.43;;;;;;;2.06;100.00;102529.09;4921385;29;20052;-92
2023/01/03 06:20:14;;;;;;;9.00;4.32;;;;;;;2.14;100.00;102520.09;4921069;29;20046;-91
2023/01/03 06:22:44;;;;;;;7.63;4.05;;;;;;;2.18;100.00;102520.22;4920726;29;20038;-92
2023/01/03 06:25:10;;;;;;;8.65;4.18;;;;;;;2.23;100.00;102523.88;4916685;29;20688;-91
2023/01/03 06:27:54;;;;;;;7.43;3.65;;;;;;;2.30;100.00;102519.09;4900750;29;20107;-91
2023/01/03 06:30:19;;;;;;;7.68;3.97;;;;;;;2.38;100.00;102522.03;4902068;29;20075;-92
2023/01/03 06:32:45;;;;;;;6.40;3.65;;;;;;;2.44;100.00;102522.28;4901524;29;20407;-91
2023/01/03 06:54:46;;;;;;;6.22;3.50;;;;;;;2.72;100.00;102518.41;4920310;29;20092;-91
2023/01/03 06:57:20;;;;;;;6.60;3.47;;;;;;;2.70;100.00;102516.59;4920121;29;20119;-90
2023/01/03 06:59:55;;;;;;;5.30;3.20;;;;;;;2.72;100.00;102505.59;4920437;29;20536;-91
2023/01/03 07:02:25;;;;;;;5.82;3.75;;;;;;;2.66;100.00;102489.91;4919571;29;20039;-91
2023/01/03 07:05:13;;;;;;;10.02;4.43;;;;;;;2.67;100.00;102495.94;4973575;23;20067;-91
2023/01/03 07:07:47;;;;;;;7.50;3.85;;;;;;;2.67;100.00;102484.00;4916022;29;20038;-90
2023/01/03 07:10:24;;;;;;;9.18;4.47;;;;;;;2.68;100.00;102495.13;4919281;29;20020;-91
2023/01/03 07:21:55;;;;;;;5.97;3.63;;;;;;;2.71;100.00;102528.56;4889600;29;20385;-90
2023/01/03 07:25:34;;;;;;;;;;;;;;;;;;;;;
2023/01/03 07:28:16;;;;;;;5.40;2.80;;;;;;;2.75;100.00;102543.31;4854553;29;20048;-90
2023/01/03 07:31:04;;;;;;;4.63;2.85;;;;;;;2.79;100.00;102537.50;4885817;29;20068;-90
2023/01/03 07:33:58;;;;;;;6.65;3.30;;;;;;;2.91;100.00;102538.06;4919713;29;20028;-90
2023/01/03 07:39:51;;;;;;;7.88;3.80;;;;;;;3.27;100.00;102528.41;4919800;29;20047;-91
2023/01/03 07:50:16;;;;;;;9.18;4.50;;;;;;;3.57;100.00;102538.19;4938127;23;20061;-90
2023/01/03 07:52:51;;;;;;;12.02;5.32;;;;;;;3.64;100.00;102535.06;4898796;29;20363;-88
2023/01/03 07:55:22;;;;;;;11.15;4.85;;;;;;;3.68;100.00;102542.94;4896002;29;20032;-95
2023/01/03 07:57:55;;;;;;;11.15;4.80;;;;;;;3.71;100.00;102547.34;4899667;29;20032;-94
2023/01/03 08:07:18;;;;;;;12.15;5.43;;;;;;;3.86;100.00;102559.94;4917740;23;20196;-95
2023/01/03 08:15:55;;;;;;;10.50;4.80;;;;;;;3.91;100.00;102570.38;4919261;29;20508;-94
2023/01/03 08:18:40;;;;;;;9.35;4.43;;;;;;;3.93;100.00;102576.47;4918550;29;20434;-95
2023/01/03 08:21:24;;;;;;;11.30;4.95;;;;;;;3.98;100.00;102572.38;4918108;29;20039;-95
2023/01/03 08:23:49;;;;;;;9.73;4.75;;;;;;;4.00;100.00;102575.88;4927889;23;20505;-93
2023/01/03 08:26:18;;;;;;;11.48;4.55;;;;;;;4.06;100.00;102576.13;4921552;29;20032;-96
2023/01/03 08:28:46;;;;;;;11.48;5.07;;;;;;;4.10;100.00;102588.28;4919362;29;20036;-95
2023/01/03 08:31:19;;;;;;;8.85;4.78;;;;;;;4.12;100.00;102584.09;4920076;29;20016;-96
2023/01/03 08:34:05;;;;;;;10.43;4.82;;;;;;;4.20;100.00;102583.50;4917815;29;20037;-91
2023/01/03 08:36:51;;;;;;;11.60;4.90;;;;;;;4.20;100.00;102570.66;4914972;29;20477;-91
2023/01/03 08:39:22;;;;;;;13.70;5.50;;;;;;;4.26;100.00;102576.03;4918069;29;20475;-91
2023/01/03 08:41:57;;;;;;;10.75;4.95;;;;;;;4.27;100.00;102573.53;4918408;29;20025;-90
2023/01/03 08:44:22;;;;;;;10.63;4.82;;;;;;;4.33;100.00;102580.59;4917695;29;20119;-90
2023/01/03 08:46:53;;;;;;;9.02;4.40;;;;;;;4.34;100.00;102587.50;4922443;29;20071;-91
2023/01/03 08:49:25;;;;;;;8.38;4.15;;;;;;;4.42;100.00;102600.66;4943794;23;20043;-90
2023/01/03 08:51:51;;;;;;;6.95;3.80;;;;;;;4.42;100.00;102598.94;4937102;29;20042;-91
2023/01/03 08:54:25;;;;;;;7.38;3.83;;;;;;;4.46;100.00;102600.81;4918494;29;20028;-90
2023/01/03 08:56:56;;;;;;;10.90;5.03;;;;;;;4.52;100.00;102600.19;4917123;29;20036;-91
2023/01/03 08:59:22;;;;;;;10.32;4.97;;;;;;;4.57;100.00;102605.50;4915381;29;20330;-90
2023/01/03 09:01:47;;;;;;;9.00;4.53;;;;;;;4.59;100.00;102601.28;4916465;29;20457;-90
2023/01/03 09:04:13;;;;;;;10.20;4.70;;;;;;;4.64;100.00;102599.75;4917722;29;20039;-90
2023/01/03 09:06:47;;;;;;;10.05;4.47;;;;;;;4.72;100.00;102603.50;4917648;29;20091;-92
2023/01/03 09:09:13;;;;;;;12.95;5.20;;;;;;;4.71;100.00;102595.72;4917062;29;20094;-91
2023/01/03 09:11:45;;;;;;;12.55;5.47;;;;;;;4.75;100.00;102602.72;4919191;29;20036;-91
2023/01/03 09:14:13;;;;;;;10.93;4.60;;;;;;;4.76;100.00;102600.22;4916068;29;20024;-95
2023/01/03 09:16:42;;;;;;;12.07;5.43;;;;;;;4.79;100.00;102600.34;4918033;29;20076;-95
2023/01/03 09:19:26;;;;;;;12.95;5.22;;;;;;;4.87;100.00;102608.34;4917015;29;20028;-91
2023/01/03 09:22:13;;;;;;;12.25;5.50;;;;;;;4.90;100.00;102610.13;4917600;29;20024;-92
2023/01/03 09:24:48;;;;;;;;;;;;;;;;;;;;;
2023/01/03 09:27:14;;;;;;;10.60;5.03;;;;;;;4.91;100.00;102591.31;4893780;29;20036;-92
2023/01/03 09:29:52;;;;;;;14.00;5.88;;;;;;;4.98;100.00;102602.69;4916579;29;20103;-91
2023/01/03 09:32:22;;;;;;;12.02;5.18;;;;;;;4.98;100.00;102587.25;4917636;29;20121;-93
2023/01/03 09:34:48;;;;;;;14.13;6.53;;;;;;;5.04;100.00;102593.50;4919134;29;20374;-93
2023/01/03 09:37:13;;;;;;;13.75;5.85;;;;;;;5.10;100.00;102601.44;4917229;29;20111;-94
2023/01/03 09:39:41;;;;;;;12.75;6.00;;;;;;;5.08;100.00;102597.06;4917156;29;20043;-94
2023/01/03 09:45:20;;;;;;;11.95;5.22;;;;;;;5.16;100.00;102599.91;4917473;29;20047;-94
2023/01/03 09:47:51;;;;;;;12.57;5.78;;;;;;;5.18;100.00;102604.28;4917370;29;20040;-95
2023/01/03 09:50:25;;;;;;;13.38;6.18;;;;;;;5.21;100.00;102598.34;4915191;29;20044;-95
2023/01/03 10:05:46;;;;;;;9.88;4.65;;;;;;;5.39;100.00;102601.59;4916010;29;20043;-94
2023/01/03 10:08:37;;;;;;;11.02;4.80;;;;;;;5.43;100.00;102599.09;4916964;29;20043;-94
2023/01/03 10:11:10;;;;;;;10.13;4.63;;;;;;;5.47;100.00;102595.81;4916998;29;20031;-93
2023/01/03 10:16:26;;;;;;;10.30;4.68;;;;;;;5.54;100.00;102600.34;4960009;23;20082;-94
2023/01/03 10:19:26;;;;;;;9.55;4.55;;;;;;;5.57;100.00;102603.91;4935876;29;20091;-93
2023/01/03 10:22:30;;;;;;;8.10;4.20;;;;;;;5.62;100.00;102598.03;4936472;29;20035;-94
2023/01/03 10:25:19;;;;;;;10.57;4.70;;;;;;;5.67;100.00;102593.94;4926806;29;20405;-93
2023/01/03 10:27:55;;;;;;;11.02;4.80;;;;;;;5.70;100.00;102605.22;4927683;29;20016;-95
2023/01/03 10:31:15;;;;;;;9.57;4.85;;;;;;;5.72;100.00;102605.25;4933758;29;20056;-93
2023/01/03 10:33:55;;;;;;;9.05;4.43;;;;;;;5.76;100.00;102598.47;4865100;29;20041;-94
2023/01/03 10:36:21;;;;;;;8.38;4.13;;;;;;;5.80;100.00;102606.38;4931232;29;20032;-94
2023/01/03 10:39:07;;;;;;;11.05;4.60;;;;;;;5.85;100.00;102602.25;4915875;23;20052;-94
2023/01/03 10:41:47;;;;;;;10.20;4.25;;;;;;;5.87;100.00;102598.03;4900982;29;20097;-93
2023/01/03 10:44:25;;;;;;;9.40;4.57;;;;;;;5.93;100.00;102594.78;4901910;29;20426;-95
2023/01/03 10:47:16;;;;;;;9.95;5.03;;;;;;;5.99;100.00;102586.38;4901285;29;20032;-94
2023/01/03 10:50:01;;;;;;;11.02;4.80;;;;;;;6.03;100.00;102586.53;4900874;29;20020;-94
2023/01/03 10:52:57;;;;;;;9.18;4.70;;;;;;;6.05;100.00;102578.84;4901755;29;20087;-93
2023/01/03 10:55:25;;;;;;;10.43;4.63;;;;;;;6.09;100.00;102584.97;4885749;29;20411;-94
2023/01/03 10:57:57;;;;;;;8.85;4.50;;;;;;;6.13;100.00;102581.66;4884514;29;20029;-93
2023/01/03 11:00:58;;;;;;;8.48;4.30;;;;;;;6.17;100.00;102583.53;4883237;29;20029;-94
2023/01/03 11:03:28;;;;;;;7.57;4.00;;;;;;;6.21;100.00;102572.47;4908991;23;20040;-93
2023/01/03 11:05:56;;;;;;;9.40;4.60;;;;;;;6.26;100.00;102577.75;4944979;29;20036;-94
2023/01/03 11:09:03;;;;;;;6.25;3.90;;;;;;;6.25;100.00;102566.56;4917502;29;20099;-96
2023/01/03 11:12:01;;;;;;;9.20;4.00;;;;;;;6.31;100.00;102584.81;4907662;23;20060;-94
2023/01/03 11:14:32;;;;;;;7.32;3.90;;;;;;;6.33;100.00;102584.88;4916382;29;20469;-94
2023/01/03 11:19:37;;;;;;;9.34;4.34;;;;;;;6.36;100.00;102576.34;4928609;23;20584;-94
2023/01/03 11:22:23;;;;;;;7.32;3.50;;;;;;;6.33;100.00;102575.41;4919922;29;20028;-94
2023/01/03 11:25:35;;;;;;;8.95;4.00;;;;;;;6.36;100.00;102572.03;4921886;29;20068;-94
2023/01/03 11:29:00;;;;;;;;;;;;;;;;;;;;;
2023/01/03 11:35:05;;;;;;;6.15;3.70;;;;;;;6.39;100.00;102573.88;5229749;23;19979;-95
2023/01/03 11:37:54;;;;;;;6.65;3.42;;;;;;;6.36;100.00;102571.19;4920063;29;20048;-90
2023/01/03 11:53:35;;;;;;;12.18;5.47;;;;;;;6.40;100.00;102565.31;5740905;23;22038;-93
2023/01/03 11:56:29;;;;;;;11.20;5.30;;;;;;;6.40;100.00;102558.41;4939293;29;20013;-96
2023/01/03 11:59:10;;;;;;;12.68;6.07;;;;;;;6.40;100.00;102563.56;4904640;29;20029;-96
2023/01/03 12:05:30;;;;;;;14.15;6.35;;;;;;;6.43;100.00;102555.94;4894826;29;20048;-95
2023/01/03 12:12:11;;;;;;;14.52;6.75;;;;;;;6.48;100.00;102545.75;5072171;23;20044;-96
2023/01/03 12:15:21;;;;;;;12.18;5.35;;;;;;;6.58;100.00;102544.34;5197757;23;20717;-96
2023/01/03 12:17:56;;;;;;;10.50;4.97;;;;;;;6.68;100.00;102525.69;4921982;29;20051;-96
2023/01/03 12:26:35;;;;;;;8.80;4.03;;;;;;;7.16;100.00;102519.22;4943277;29;20054;-96
2023/01/03 12:29:25;;;;;;;7.32;3.67;;;;;;;7.23;100.00;102518.53;4956548;29;20046;-96
2023/01/03 12:32:28;;;;;;;6.88;3.38;;;;;;;7.31;100.00;102530.78;5110785;23;20063;-96
2023/01/03 12:37:35;;;;;;;5.53;3.28;;;;;;;7.34;100.00;102517.94;5037646;23;20062;-96
2023/01/03 12:40:11;;;;;;;5.57;3.55;;;;;;;7.35;100.00;102522.25;4941254;29;20020;-96
2023/01/03 12:43:04;;;;;;;4.70;3.22;;;;;;;7.37;100.00;102508.56;4940996;29;20012;-96
2023/01/03 12:45:52;;;;;;;4.65;2.92;;;;;;;7.41;100.00;102527.59;4941077;29;20032;-96
2023/01/03 12:48:29;;;;;;;4.15;3.00;;;;;;;7.39;100.00;102524.09;4937679;29;20032;-96
2023/01/03 12:51:05;;;;;;;6.60;3.40;;;;;;;7.45;100.00;102511.31;4940029;29;20060;-96
2023/01/03 12:53:57;;;;;;;6.05;3.47;;;;;;;7.38;100.00;102520.63;4938069;29;20457;-96
2023/01/03 12:57:06;;;;;;;8.27;3.88;;;;;;;7.39;100.00;102518.94;4936234;29;20059;-96
2023/01/03 13:00:26;;;;;;;8.60;4.28;;;;;;;7.36;100.00;102518.84;4930693;29;20024;-96
2023/01/03 13:02:57;;;;;;;7.80;3.92;;;;;;;7.35;100.00;102523.16;4913607;29;20037;-96
2023/01/03 13:05:42;;;;;;;8.38;4.50;;;;;;;7.36;100.00;102518.84;4920458;29;20113;-96
2023/01/03 13:09:04;;;;;;;6.85;3.92;;;;;;;7.31;100.00;102518.72;4919309;29;20023;-96
2023/01/03 13:11:50;;;;;;;6.20;3.58;;;;;;;7.34;100.00;102520.50;4843771;29;20034;-96
2023/01/03 13:15:07;;;;;;;5.95;3.25;;;;;;;7.30;100.00;102519.56;4844837;29;20045;-96
2023/01/03 13:17:48;;;;;;;6.88;4.15;;;;;;;7.31;100.00;102511.00;4859170;29;20772;-95
2023/01/03 14:37:26;;;;;;;5.18;2.50;;;;;;;7.34;99.01;102471.44;5955473;23;20993;-96
2023/01/03 14:39:55;;;;;;;5.50;2.67;;;;;;;7.39;99.57;102459.53;4914251;29;20036;-96
2023/01/03 14:42:30;;;;;;;3.58;2.40;;;;;;;7.31;99.75;102450.72;5104226;23;20062;-96
2023/01/03 14:47:50;;;;;;;6.35;2.28;;;;;;;7.32;99.78;102442.13;5031745;23;20064;-96
2023/01/03 14:50:43;;;;;;;3.83;2.30;;;;;;;7.26;99.77;102441.16;4952947;29;20064;-96
2023/01/03 14:58:52;;;;;;;3.83;2.20;;;;;;;7.15;99.89;102457.22;5139821;23;20033;-96
2023/01/03 15:06:59;;;;;;;3.70;2.17;;;;;;;7.11;99.92;102454.56;4976783;23;20032;-96
2023/01/03 15:09:40;;;;;;;3.03;1.90;;;;;;;7.06;100.00;102458.72;4919389;29;20067;-96
2023/01/03 15:12:06;;;;;;;3.00;1.90;;;;;;;7.03;99.55;102453.50;4933752;29;20040;-96
2023/01/03 15:14:47;;;;;;;2.20;1.85;;;;;;;7.03;99.87;102457.78;4940018;29;20018;-96
2023/01/03 15:35:29;;;;;;;3.35;2.20;;;;;;;6.94;99.45;102446.38;4999673;23;20115;-84
2023/01/03 15:38:35;;;;;;;4.20;2.20;;;;;;;6.91;99.31;102448.88;4931258;23;20014;-94
2023/01/03 15:43:18;;;;;;;4.20;2.40;;;;;;;6.89;99.65;102453.13;4921120;29;20549;-93
2023/01/03 15:44:23;;;;;;;6.82;2.75;;;;;;;6.90;99.25;102461.75;4921591;29;20040;-96
2023/01/03 15:47:06;;;;;;;7.10;2.83;;;;;;;6.83;99.41;102454.66;4921549;29;20036;-96
2023/01/03 15:49:45;;;;;;;7.88;2.90;;;;;;;6.78;99.15;102455.44;4922779;29;20035;-96
2023/01/03 15:52:17;;;;;;;4.75;2.50;;;;;;;6.75;99.35;102449.31;4928659;29;20028;-96
2023/01/03 15:54:43;;;;;;;5.00;2.40;;;;;;;6.72;99.42;102446.66;4927823;23;20044;-96
2023/01/03 15:57:27;;;;;;;4.47;2.22;;;;;;;6.73;99.62;102451.00;4921841;29;20032;-96
2023/01/03 16:00:04;;;;;;;4.47;2.40;;;;;;;6.68;99.87;102447.41;4921154;29;20028;-96
2023/01/03 16:02:35;;;;;;;7.70;2.80;;;;;;;6.68;99.91;102439.66;4920344;29;20035;-96
2023/01/03 16:05:06;;;;;;;6.03;2.80;;;;;;;6.68;99.58;102442.25;4925733;23;20088;-95
2023/01/03 16:07:49;;;;;;;5.28;2.58;;;;;;;6.67;99.65;102435.31;4921816;29;20005;-95
2023/01/03 16:10:29;;;;;;;7.38;2.65;;;;;;;6.67;99.75;102436.22;4919659;29;20024;-96
2023/01/03 16:13:12;;;;;;;5.28;2.70;;;;;;;6.63;99.77;102427.53;4922598;29;20047;-96
2023/01/03 16:15:44;;;;;;;4.70;2.53;;;;;;;6.63;99.86;102427.53;4920247;29;20024;-95
2023/01/03 16:18:20;;;;;;;3.22;2.30;;;;;;;6.64;100.00;102428.38;4919294;29;20055;-96
2023/01/03 16:21:06;;;;;;;6.82;2.70;;;;;;;6.67;99.73;102432.75;4919436;29;20051;-96
2023/01/03 16:23:33;;;;;;;6.50;2.70;;;;;;;6.59;99.94;102417.06;4918627;29;20032;-96
2023/01/03 16:26:17;;;;;;;4.30;2.72;;;;;;;6.55;99.91;102421.28;4918454;29;20031;-96
2023/01/03 16:28:43;;;;;;;6.30;2.67;;;;;;;6.55;99.93;102420.41;4917783;29;20032;-93
2023/01/03 16:31:12;;;;;;;5.93;3.00;;;;;;;6.59;99.92;102417.94;4923925;23;20485;-96
2023/01/03 16:33:38;;;;;;;7.47;2.90;;;;;;;6.59;99.73;102410.22;4918063;29;20032;-96
2023/01/03 16:36:46;;;;;;;7.75;2.70;;;;;;;6.58;99.91;102410.19;4920121;29;20025;-96
2023/01/03 16:39:21;;;;;;;4.20;2.50;;;;;;;6.57;99.72;102416.16;4938241;29;20038;-96
2023/01/03 16:44:52;;;;;;;5.97;2.70;;;;;;;6.59;99.82;102414.47;4938370;29;20187;-96
2023/01/03 16:47:32;;;;;;;7.38;2.70;;;;;;;6.60;99.51;102413.66;4938780;29;20032;-95
2023/01/03 16:50:18;;;;;;;4.85;2.58;;;;;;;6.56;99.60;102409.25;4934403;29;20039;-96
2023/01/03 16:52:54;;;;;;;5.28;2.60;;;;;;;6.55;99.79;102410.94;4918460;29;20032;-96
2023/01/03 16:55:37;;;;;;;4.85;2.85;;;;;;;6.56;99.52;102407.53;4919307;29;20028;-96
2023/01/03 16:58:15;;;;;;;4.53;2.70;;;;;;;6.57;99.82;102413.59;4919941;29;20028;-96
2023/01/03 17:00:53;;;;;;;7.32;3.10;;;;;;;6.58;99.53;102415.34;4926970;29;20032;-96
2023/01/03 17:03:19;;;;;;;6.95;3.00;;;;;;;6.72;98.57;102413.97;4927364;29;20032;-95
2023/01/03 17:06:02;;;;;;;5.73;2.63;;;;;;;6.63;99.38;102421.47;4935751;29;20020;-96
2023/01/03 17:08:35;;;;;;;5.13;2.58;;;;;;;6.67;99.24;102417.25;4934258;29;20024;-96
2023/01/03 17:11:14;;;;;;;7.05;2.80;;;;;;;6.65;99.35;102410.34;4922726;29;20043;-96
2023/01/03 17:14:33;;;;;;;7.00;2.53;;;;;;;6.69;99.14;102406.19;4923758;29;20028;-96
2023/01/03 17:17:19;;;;;;;5.95;2.50;;;;;;;6.65;99.38;102402.63;4921492;29;20043;-96